Conrad, MT

12:45 AM MDT on April 01, 2015 (GMT -0600)
CENTROL Conrad | | Change Station
CLOSE
Current Station
Personal Weather Station
Location: Conrad, MT
Elevation: 3517 ft
Nearby Weather Stations

Elev 3517 ft 48.16 °N, 111.95 °W | Updated 18 seconds ago

Mostly Cloudy
Mostly Cloudy
37.5 °F
Feels Like 38 °F
N
2.8
Wind Variable Wind from West
Gusts 3.0 mph

Today
High -- | Low -- °F
--% Chance of Precip.
Yesterday
High -- | Low -- °F
Precip. -- in
7:06 AM 7:57 PM
Waxing Gibbous, 91% visible
Pressure 29.69 in
Visibility 10.0 miles
Clouds Clear
Windchill 38 °F
Dew Point 18 °F
Humidity 45%
Rainfall 0.00 in
Snow Depth Not available.
UV 0 out of 12
Pollen 9.10 out of 12
Air Quality Not available.
Flu Activity Not available.
METAR KCTB 010556Z AUTO 26019G26KT 10SM CLR 03/M06 A2970 RMK AO2 PK WND 25027/0546 SLP054 T00331056 10122 20028 51010

More Conditions Fewer Conditions

Pressure 29.69 in
Visibility 10.0 miles
Clouds Clear
Windchill 38 °F
Dew Point 18 °F
Humidity 45%
Rainfall 0.00 in
Snow Depth Not available.
UV 0 out of 12
Pollen 9.10 out of 12
Air Quality Not available.
Flu Activity Not available.
METAR KCTB 010556Z AUTO 26019G26KT 10SM CLR 03/M06 A2970 RMK AO2 PK WND 25027/0546 SLP054 T00331056 10122 20028 51010

More Conditions Fewer Conditions

10-Day Weather Forecast

Almanac

Astronomy

Apr. 01, 2015 Rise Set
Actual Time
Civil Twilight
Nautical Twilight
Astronomical Twilight
Moon
Length of Visible Light
Length of Day
Tomorrow will be .
, % of the Moon is Illuminated

Today's Extremes

State Highs State Lows

Community

WunderPhotos

Upload Photos

1,809,924 photos uploaded!

WunderBlogs® & News

Nearby

Air Quality

  Air Quality AQ Index Pollutant
Not available.

Snow Depth

Station Depth Elevation

Earthquake Activity

City Distance Mag. Time & Date
Minimum magnitude displayed is 2.5.

Coastal Water Temperatures

Place Temperature

Stations

Nearby Weather Stations

Station Location Temp. Windchill Dew Point Humidity Wind Precip. Elev Updated Type